Time;durP1;ratioP1;P1;durP2;ratioP2;P2;SDS_P1;SDS_P2;PMS_P1;PMS_P2;Temp;Humidity;BMP_temperature;BMP_pressure;BME280_temperature;BME280_humidity;BME280_pressure;Samples;Min_cycle;Max_cycle;Signal;HPM_P1;HPM_P2
2023/09/14 00:01:14;;;;;;;;;;;;;;;;;;6363864;27;20370;-72
2023/09/14 00:04:14;;;;;;;;;;;;;;;;;;6367187;27;19918;-73
2023/09/14 00:07:14;;;;;;;;;;;;;;;;;;6350195;27;19956;-72
2023/09/14 00:10:14;;;;;;;;;;;;;;;;;;6367635;27;19908;-73
2023/09/14 00:13:15;;;;;;;;;;;;;;;;;;6366002;27;19916;-74
2023/09/14 00:16:23;;;;;;;;;;;;;;;;;;6298127;27;9999819;-74
2023/09/14 00:19:25;;;;;;;;;;;;;;;;;;6340242;27;19911;-74
2023/09/14 00:22:26;;;;;;;;;;;;;;;;;;6368552;27;19926;-73
2023/09/14 00:25:26;;;;;;;;;;;;;;;;;;6365139;27;20005;-73
2023/09/14 00:28:26;;;;;;;;;;;;;;;;;;6365950;27;19923;-73
2023/09/14 00:31:26;;;;;;;;;;;;;;;;;;6368268;27;19915;-73
2023/09/14 00:34:26;;;;;;;;;;;;;;;;;;6367961;27;19964;-74
2023/09/14 00:37:27;;;;;;;;;;;;;;;;;;6365571;27;19912;-74
2023/09/14 00:40:27;;;;;;;;;;;;;;;;;;6367389;27;20397;-74
2023/09/14 00:43:27;;;;;;;;;;;;;;;;;;6364681;27;20072;-74
2023/09/14 00:46:27;;;;;;;;;;;;;;;;;;6344949;27;19919;-74
2023/09/14 00:49:27;;;;;;;;;;;;;;;;;;6369964;27;19911;-75
2023/09/14 00:52:27;;;;;;;;;;;;;;;;;;6368257;27;19912;-75
2023/09/14 00:55:27;;;;;;;;;;;;;;;;;;6343635;27;19911;-75
2023/09/14 00:58:27;;;;;;;;;;;;;;;;;;6349801;27;20067;-75
2023/09/14 01:01:31;;;;;;;;;;;;;;;;;;6339586;27;20377;-75
2023/09/14 01:04:32;;;;;;;;;;;;;;;;;;6346887;27;20411;-74
2023/09/14 01:07:33;;;;;;;;;;;;;;;;;;6366907;27;19912;-75
2023/09/14 01:10:33;;;;;;;;;;;;;;;;;;6368303;27;19937;-75
2023/09/14 01:13:34;;;;;;;;;;;;;;;;;;6349771;27;19954;-74
2023/09/14 01:16:34;;;;;;;;;;;;;;;;;;6356109;27;20009;-74
2023/09/14 01:19:35;;;;;;;;;;;;;;;;;;6365002;27;20408;-74
2023/09/14 01:22:35;;;;;;;;;;;;;;;;;;6359940;27;19938;-73
2023/09/14 01:25:35;;;;;;;;;;;;;;;;;;6360080;27;19915;-72
2023/09/14 01:28:35;;;;;;;;;;;;;;;;;;6355379;27;19911;-73
2023/09/14 01:31:36;;;;;;;;;;;;;;;;;;6345487;27;19914;-73
2023/09/14 01:34:36;;;;;;;;;;;;;;;;;;6359402;27;20019;-73
2023/09/14 01:37:37;;;;;;;;;;;;;;;;;;6364176;27;20032;-73
2023/09/14 01:40:37;;;;;;;;;;;;;;;;;;6357866;27;19934;-72
2023/09/14 01:43:37;;;;;;;;;;;;;;;;;;6361920;27;19927;-71
2023/09/14 01:46:38;;;;;;;;;;;;;;;;;;6361619;27;19915;-73
2023/09/14 01:49:38;;;;;;;;;;;;;;;;;;6362498;27;20014;-73
2023/09/14 01:52:38;;;;;;;;;;;;;;;;;;6355648;27;19926;-73
2023/09/14 01:55:38;;;;;;;;;;;;;;;;;;6358193;27;20382;-73
2023/09/14 01:58:38;;;;;;;;;;;;;;;;;;6363350;27;19912;-73
2023/09/14 02:01:38;;;;;;;;;;;;;;;;;;6338839;28;19919;-73
2023/09/14 02:04:40;;;;;;;;;;;;;;;;;;6359133;27;19919;-74
2023/09/14 02:07:40;;;;;;;;;;;;;;;;;;6364198;27;19926;-73
2023/09/14 02:10:40;;;;;;;;;;;;;;;;;;6369157;27;19911;-73
2023/09/14 02:13:40;;;;;;;;;;;;;;;;;;6374327;27;19972;-73
2023/09/14 02:16:41;;;;;;;;;;;;;;;;;;6365965;27;19926;-73
2023/09/14 02:19:41;;;;;;;;;;;;;;;;;;6367174;27;19915;-73
2023/09/14 02:22:41;;;;;;;;;;;;;;;;;;6369932;27;19983;-73
2023/09/14 02:25:41;;;;;;;;;;;;;;;;;;6367777;27;20445;-73
2023/09/14 02:28:41;;;;;;;;;;;;;;;;;;6367913;27;19915;-73
2023/09/14 02:31:41;;;;;;;;;;;;;;;;;;6367162;27;19911;-74
2023/09/14 02:34:41;;;;;;;;;;;;;;;;;;6359249;27;19915;-74
2023/09/14 02:37:41;;;;;;;;;;;;;;;;;;6348117;27;19911;-74
2023/09/14 02:40:42;;;;;;;;;;;;;;;;;;6371432;27;20358;-73
2023/09/14 02:43:42;;;;;;;;;;;;;;;;;;6371180;27;20394;-73
2023/09/14 02:46:42;;;;;;;;;;;;;;;;;;6366847;27;19968;-73
2023/09/14 02:49:42;;;;;;;;;;;;;;;;;;6370947;27;19956;-76
2023/09/14 02:52:42;;;;;;;;;;;;;;;;;;6374182;27;20015;-74
2023/09/14 02:55:42;;;;;;;;;;;;;;;;;;6370220;27;19911;-74
2023/09/14 02:58:42;;;;;;;;;;;;;;;;;;6373687;27;19911;-74
2023/09/14 03:01:43;;;;;;;;;;;;;;;;;;6343200;28;19964;-73
2023/09/14 03:04:43;;;;;;;;;;;;;;;;;;6341268;28;19940;-73
2023/09/14 03:07:43;;;;;;;;;;;;;;;;;;6340984;28;19948;-74
2023/09/14 03:10:43;;;;;;;;;;;;;;;;;;6340126;28;19923;-74
2023/09/14 03:13:44;;;;;;;;;;;;;;;;;;6342063;28;19943;-73
2023/09/14 03:16:44;;;;;;;;;;;;;;;;;;6340599;28;19913;-74
2023/09/14 03:19:44;;;;;;;;;;;;;;;;;;6339608;28;19918;-73
2023/09/14 03:22:44;;;;;;;;;;;;;;;;;;6341291;28;19918;-73
2023/09/14 03:25:45;;;;;;;;;;;;;;;;;;6335024;28;19908;-72
2023/09/14 03:28:46;;;;;;;;;;;;;;;;;;6324107;28;19969;-72
2023/09/14 03:31:46;;;;;;;;;;;;;;;;;;6337154;28;19912;-72
2023/09/14 03:34:46;;;;;;;;;;;;;;;;;;6337680;28;20002;-71
2023/09/14 03:37:46;;;;;;;;;;;;;;;;;;6347501;28;19998;-71
2023/09/14 03:40:46;;;;;;;;;;;;;;;;;;6321911;28;19908;-71
2023/09/14 03:43:46;;;;;;;;;;;;;;;;;;6339452;28;20262;-71
2023/09/14 03:46:46;;;;;;;;;;;;;;;;;;6347764;28;20374;-72
2023/09/14 03:49:46;;;;;;;;;;;;;;;;;;6347795;28;20332;-71
2023/09/14 03:52:47;;;;;;;;;;;;;;;;;;6340937;28;19916;-71
2023/09/14 03:55:47;;;;;;;;;;;;;;;;;;6364436;27;19961;-71
2023/09/14 03:58:47;;;;;;;;;;;;;;;;;;6348671;28;20401;-71
2023/09/14 04:01:47;;;;;;;;;;;;;;;;;;6342879;28;19935;-70
2023/09/14 04:04:48;;;;;;;;;;;;;;;;;;6347266;28;19915;-73
2023/09/14 04:07:48;;;;;;;;;;;;;;;;;;6330478;28;19919;-71
2023/09/14 04:10:50;;;;;;;;;;;;;;;;;;6329597;28;19999;-71
2023/09/14 04:13:51;;;;;;;;;;;;;;;;;;6343961;28;19924;-73
2023/09/14 04:16:56;;;;;;;;;;;;;;;;;;6339711;28;19954;-73
2023/09/14 04:19:57;;;;;;;;;;;;;;;;;;6337393;28;19919;-73
2023/09/14 04:22:57;;;;;;;;;;;;;;;;;;6338363;28;19912;-73
2023/09/14 04:25:57;;;;;;;;;;;;;;;;;;6325052;28;19966;-73
2023/09/14 04:28:57;;;;;;;;;;;;;;;;;;6339261;28;19922;-73
2023/09/14 04:31:57;;;;;;;;;;;;;;;;;;6325965;28;19928;-73
2023/09/14 04:34:57;;;;;;;;;;;;;;;;;;6335547;28;20263;-74
2023/09/14 04:37:57;;;;;;;;;;;;;;;;;;6335236;28;19912;-73
2023/09/14 04:40:58;;;;;;;;;;;;;;;;;;6338484;28;19911;-72
2023/09/14 04:43:58;;;;;;;;;;;;;;;;;;6313936;28;19912;-72
2023/09/14 04:46:58;;;;;;;;;;;;;;;;;;6336466;28;19923;-74
2023/09/14 04:49:58;;;;;;;;;;;;;;;;;;6332799;28;19911;-72
2023/09/14 04:52:58;;;;;;;;;;;;;;;;;;6336513;28;19923;-72
2023/09/14 04:55:58;;;;;;;;;;;;;;;;;;6334685;28;19919;-72
2023/09/14 04:58:58;;;;;;;;;;;;;;;;;;6344634;28;19908;-72
2023/09/14 05:01:58;;;;;;;;;;;;;;;;;;6332772;28;19952;-73
2023/09/14 05:04:58;;;;;;;;;;;;;;;;;;6320614;28;19951;-73
2023/09/14 05:07:59;;;;;;;;;;;;;;;;;;6336201;28;20284;-72
2023/09/14 05:10:59;;;;;;;;;;;;;;;;;;6340870;28;19912;-73
2023/09/14 05:13:59;;;;;;;;;;;;;;;;;;6335578;28;19919;-73
2023/09/14 05:16:59;;;;;;;;;;;;;;;;;;6339587;28;19957;-73
2023/09/14 05:19:59;;;;;;;;;;;;;;;;;;6330288;28;19911;-73
2023/09/14 05:23:00;;;;;;;;;;;;;;;;;;6337897;28;19912;-73
2023/09/14 05:26:00;;;;;;;;;;;;;;;;;;6342302;28;19919;-73
2023/09/14 05:29:00;;;;;;;;;;;;;;;;;;6341442;28;19919;-73
2023/09/14 05:32:00;;;;;;;;;;;;;;;;;;6334552;28;19995;-74
2023/09/14 05:35:00;;;;;;;;;;;;;;;;;;6341644;28;19947;-73
2023/09/14 05:38:00;;;;;;;;;;;;;;;;;;6336560;28;19918;-73
2023/09/14 05:41:00;;;;;;;;;;;;;;;;;;6338520;28;19912;-73
2023/09/14 05:44:00;;;;;;;;;;;;;;;;;;6323615;28;19915;-73
2023/09/14 05:47:01;;;;;;;;;;;;;;;;;;6340115;28;20296;-73
2023/09/14 05:50:01;;;;;;;;;;;;;;;;;;6337772;28;19919;-73
2023/09/14 05:53:02;;;;;;;;;;;;;;;;;;6319125;28;19915;-73
2023/09/14 05:56:02;;;;;;;;;;;;;;;;;;6327535;28;19945;-73
2023/09/14 05:59:02;;;;;;;;;;;;;;;;;;6339696;28;19916;-73
2023/09/14 06:02:02;;;;;;;;;;;;;;;;;;6331077;28;19920;-74
2023/09/14 06:05:03;;;;;;;;;;;;;;;;;;6333516;28;20608;-73
2023/09/14 06:08:03;;;;;;;;;;;;;;;;;;6332096;28;19931;-73
2023/09/14 06:11:03;;;;;;;;;;;;;;;;;;6334714;28;19957;-74
2023/09/14 06:14:03;;;;;;;;;;;;;;;;;;6331076;28;20057;-73
2023/09/14 06:17:04;;;;;;;;;;;;;;;;;;6338295;28;19915;-73
2023/09/14 06:20:05;;;;;;;;;;;;;;;;;;6335067;28;19912;-73
2023/09/14 06:23:06;;;;;;;;;;;;;;;;;;6334147;28;19912;-73
2023/09/14 06:26:06;;;;;;;;;;;;;;;;;;6328003;28;19919;-73
2023/09/14 06:29:11;;;;;;;;;;;;;;;;;;6327846;28;19972;-73
2023/09/14 06:32:12;;;;;;;;;;;;;;;;;;6341205;28;19960;-73
2023/09/14 06:35:12;;;;;;;;;;;;;;;;;;6343859;28;19973;-73
2023/09/14 06:38:12;;;;;;;;;;;;;;;;;;6345068;28;20004;-73
2023/09/14 06:41:15;;;;;;;;;;;;;;;;;;6318284;28;19967;-72
2023/09/14 06:44:19;;;;;;;;;;;;;;;;;;6332167;28;19916;-72
2023/09/14 06:47:19;;;;;;;;;;;;;;;;;;6332969;28;19966;-72
2023/09/14 06:50:19;;;;;;;;;;;;;;;;;;6338202;28;19920;-72
2023/09/14 06:53:19;;;;;;;;;;;;;;;;;;6342938;28;19916;-72
2023/09/14 06:56:19;;;;;;;;;;;;;;;;;;6323609;28;20005;-72
2023/09/14 06:59:19;;;;;;;;;;;;;;;;;;6339882;28;19995;-72
2023/09/14 07:02:19;;;;;;;;;;;;;;;;;;6344469;28;19924;-71
2023/09/14 07:05:19;;;;;;;;;;;;;;;;;;6356045;27;20454;-72
2023/09/14 07:08:20;;;;;;;;;;;;;;;;;;6336641;28;19912;-73
2023/09/14 07:11:20;;;;;;;;;;;;;;;;;;6310853;28;19992;-73
2023/09/14 07:14:20;;;;;;;;;;;;;;;;;;6331688;28;19980;-73
2023/09/14 07:17:21;;;;;;;;;;;;;;;;;;6313670;28;19916;-73
2023/09/14 07:20:21;;;;;;;;;;;;;;;;;;6328317;28;19918;-72
2023/09/14 07:23:21;;;;;;;;;;;;;;;;;;6331307;28;20400;-72
2023/09/14 07:26:21;;;;;;;;;;;;;;;;;;6314187;28;19999;-72
2023/09/14 07:29:22;;;;;;;;;;;;;;;;;;6333418;28;19916;-72
2023/09/14 07:32:22;;;;;;;;;;;;;;;;;;6326490;28;19932;-73
2023/09/14 07:35:22;;;;;;;;;;;;;;;;;;6330502;28;21264;-71
2023/09/14 07:38:22;;;;;;;;;;;;;;;;;;6329532;28;19915;-71
2023/09/14 07:41:22;;;;;;;;;;;;;;;;;;6327640;28;19989;-70
2023/09/14 07:44:22;;;;;;;;;;;;;;;;;;6312612;28;20691;-72
2023/09/14 07:47:29;;;;;;;;;;;;;;;;;;6305694;28;19920;-73
2023/09/14 07:50:29;;;;;;;;;;;;;;;;;;6324111;28;19954;-72
2023/09/14 07:53:29;;;;;;;;;;;;;;;;;;6329648;28;19941;-73
2023/09/14 07:56:29;;;;;;;;;;;;;;;;;;6308598;28;20356;-72
2023/09/14 07:59:30;;;;;;;;;;;;;;;;;;6324935;28;19922;-73
2023/09/14 08:02:31;;;;;;;;;;;;;;;;;;6306697;28;19982;-73
2023/09/14 08:05:31;;;;;;;;;;;;;;;;;;6283626;28;20015;-72
2023/09/14 08:08:33;;;;;;;;;;;;;;;;;;6259953;28;20471;-73
2023/09/14 08:11:35;;;;;;;;;;;;;;;;;;6270434;28;20239;-73
2023/09/14 08:14:36;;;;;;;;;;;;;;;;;;6269518;28;19932;-69
2023/09/14 08:17:36;;;;;;;;;;;;;;;;;;6281512;28;21299;-71
2023/09/14 08:20:36;;;;;;;;;;;;;;;;;;6285351;28;19974;-72
2023/09/14 08:23:36;;;;;;;;;;;;;;;;;;6285988;28;20011;-73
2023/09/14 08:26:36;;;;;;;;;;;;;;;;;;6270566;28;19996;-71
2023/09/14 08:29:37;;;;;;;;;;;;;;;;;;6286242;28;19919;-73
2023/09/14 08:32:37;;;;;;;;;;;;;;;;;;6287006;28;19943;-72
2023/09/14 08:35:37;;;;;;;;;;;;;;;;;;6281841;28;20149;-72
2023/09/14 08:38:38;;;;;;;;;;;;;;;;;;6284737;28;19920;-74
2023/09/14 08:41:38;;;;;;;;;;;;;;;;;;6285978;28;20331;-74
2023/09/14 08:44:39;;;;;;;;;;;;;;;;;;6267754;28;19925;-70
2023/09/14 08:47:39;;;;;;;;;;;;;;;;;;6286966;28;19912;-71
2023/09/14 08:50:40;;;;;;;;;;;;;;;;;;6270303;28;19942;-75
2023/09/14 08:53:41;;;;;;;;;;;;;;;;;;6285686;28;19924;-77
2023/09/14 08:56:42;;;;;;;;;;;;;;;;;;6284384;28;19928;-75
2023/09/14 08:59:43;;;;;;;;;;;;;;;;;;6283390;28;20275;-75
2023/09/14 09:02:43;;;;;;;;;;;;;;;;;;6319263;27;19932;-73
2023/09/14 09:05:43;;;;;;;;;;;;;;;;;;6334293;27;20008;-72
2023/09/14 09:08:44;;;;;;;;;;;;;;;;;;6315120;27;19919;-76
2023/09/14 09:11:46;;;;;;;;;;;;;;;;;;6335937;27;20334;-75
2023/09/14 09:14:47;;;;;;;;;;;;;;;;;;6317933;27;19966;-71
2023/09/14 09:17:47;;;;;;;;;;;;;;;;;;6334191;27;19987;-71
2023/09/14 09:20:47;;;;;;;;;;;;;;;;;;6334998;27;19916;-72
2023/09/14 09:23:47;;;;;;;;;;;;;;;;;;6334767;27;19923;-73
2023/09/14 09:26:47;;;;;;;;;;;;;;;;;;6333428;27;19931;-72
2023/09/14 09:29:47;;;;;;;;;;;;;;;;;;6334918;27;19919;-73
2023/09/14 09:32:47;;;;;;;;;;;;;;;;;;6334769;27;19931;-76
2023/09/14 09:35:49;;;;;;;;;;;;;;;;;;6336475;27;19926;-76
2023/09/14 09:38:49;;;;;;;;;;;;;;;;;;6335712;27;19923;-70
2023/09/14 09:41:50;;;;;;;;;;;;;;;;;;6334696;27;20007;-75
2023/09/14 09:44:50;;;;;;;;;;;;;;;;;;6333234;27;19924;-71
2023/09/14 09:47:50;;;;;;;;;;;;;;;;;;6340950;27;19937;-74
2023/09/14 09:50:51;;;;;;;;;;;;;;;;;;6322214;27;19923;-69
2023/09/14 09:53:51;;;;;;;;;;;;;;;;;;6335191;27;19924;-68
2023/09/14 09:56:52;;;;;;;;;;;;;;;;;;6338872;27;21380;-74
2023/09/14 09:59:52;;;;;;;;;;;;;;;;;;6340771;27;20342;-71
2023/09/14 10:02:52;;;;;;;;;;;;;;;;;;6349946;27;19931;-72
2023/09/14 10:05:52;;;;;;;;;;;;;;;;;;6338267;28;19911;-73
2023/09/14 10:08:54;;;;;;;;;;;;;;;;;;6352683;28;19911;-74
2023/09/14 10:11:54;;;;;;;;;;;;;;;;;;6366609;28;19923;-76
2023/09/14 10:14:55;;;;;;;;;;;;;;;;;;6371865;28;20322;-74
2023/09/14 10:17:56;;;;;;;;;;;;;;;;;;6370596;28;20354;-74
2023/09/14 10:20:56;;;;;;;;;;;;;;;;;;6350096;28;19922;-73
2023/09/14 10:23:57;;;;;;;;;;;;;;;;;;6364567;28;19943;-73
2023/09/14 10:26:57;;;;;;;;;;;;;;;;;;6367582;27;20006;-73
2023/09/14 10:29:57;;;;;;;;;;;;;;;;;;6374904;27;20364;-74
2023/09/14 10:32:58;;;;;;;;;;;;;;;;;;6355161;27;19931;-74
2023/09/14 10:35:58;;;;;;;;;;;;;;;;;;6352551;27;19926;-73
2023/09/14 10:38:59;;;;;;;;;;;;;;;;;;6366280;27;19912;-74
2023/09/14 10:41:59;;;;;;;;;;;;;;;;;;6354850;27;19912;-74
2023/09/14 10:44:59;;;;;;;;;;;;;;;;;;6368724;27;19920;-74
2023/09/14 10:47:59;;;;;;;;;;;;;;;;;;6365844;27;19912;-75
2023/09/14 10:51:00;;;;;;;;;;;;;;;;;;6006354;27;10000209;-75
2023/09/14 10:54:00;;;;;;;;;;;;;;;;;;6364417;27;20450;-76
2023/09/14 10:57:00;;;;;;;;;;;;;;;;;;6335743;28;19998;-75
2023/09/14 11:00:01;;;;;;;;;;;;;;;;;;6347299;28;19930;-76
2023/09/14 11:03:01;;;;;;;;;;;;;;;;;;6335250;28;20313;-75
2023/09/14 11:06:02;;;;;;;;;;;;;;;;;;6339294;28;19958;-76
2023/09/14 11:09:03;;;;;;;;;;;;;;;;;;6348325;28;20000;-76
2023/09/14 11:12:03;;;;;;;;;;;;;;;;;;6346348;28;20620;-76
2023/09/14 11:15:04;;;;;;;;;;;;;;;;;;6343063;27;19919;-76
2023/09/14 11:18:04;;;;;;;;;;;;;;;;;;6347311;28;19958;-76
2023/09/14 11:21:04;;;;;;;;;;;;;;;;;;6344309;28;20022;-76
2023/09/14 11:24:04;;;;;;;;;;;;;;;;;;6347059;28;19919;-76
2023/09/14 11:27:04;;;;;;;;;;;;;;;;;;6345681;28;20023;-76
2023/09/14 11:30:04;;;;;;;;;;;;;;;;;;6346136;28;20388;-75
2023/09/14 11:33:05;;;;;;;;;;;;;;;;;;5983716;28;10000224;-76
2023/09/14 11:36:05;;;;;;;;;;;;;;;;;;6336366;28;19916;-75
2023/09/14 11:39:05;;;;;;;;;;;;;;;;;;6337085;28;20373;-74
2023/09/14 11:42:06;;;;;;;;;;;;;;;;;;6346788;28;19912;-75
2023/09/14 11:45:06;;;;;;;;;;;;;;;;;;6338315;28;19932;-76
2023/09/14 11:48:06;;;;;;;;;;;;;;;;;;6346334;28;19956;-75
2023/09/14 11:51:08;;;;;;;;;;;;;;;;;;6330029;28;19912;-74
2023/09/14 11:54:09;;;;;;;;;;;;;;;;;;6341128;28;19962;-75
2023/09/14 11:57:09;;;;;;;;;;;;;;;;;;6344839;28;20396;-75
2023/09/14 12:00:09;;;;;;;;;;;;;;;;;;6347850;28;19908;-76
2023/09/14 12:03:09;;;;;;;;;;;;;;;;;;6368791;27;19926;-74
2023/09/14 12:06:09;;;;;;;;;;;;;;;;;;6373670;27;19907;-75
2023/09/14 12:09:09;;;;;;;;;;;;;;;;;;6372746;27;19912;-76
2023/09/14 12:12:10;;;;;;;;;;;;;;;;;;6375741;27;19923;-76
2023/09/14 12:15:10;;;;;;;;;;;;;;;;;;6356056;27;19912;-75
2023/09/14 12:18:10;;;;;;;;;;;;;;;;;;6354773;27;19907;-75
2023/09/14 12:21:11;;;;;;;;;;;;;;;;;;6373310;27;20297;-75
2023/09/14 12:24:11;;;;;;;;;;;;;;;;;;6371917;27;19919;-77
2023/09/14 12:27:11;;;;;;;;;;;;;;;;;;6375320;27;19908;-77
2023/09/14 12:30:11;;;;;;;;;;;;;;;;;;6376749;27;20023;-75
2023/09/14 12:33:11;;;;;;;;;;;;;;;;;;6379407;27;19922;-76
2023/09/14 12:36:11;;;;;;;;;;;;;;;;;;6363272;27;19911;-76
2023/09/14 12:39:15;;;;;;;;;;;;;;;;;;6379772;27;20034;-78
2023/09/14 12:42:15;;;;;;;;;;;;;;;;;;6374066;27;20086;-76
2023/09/14 12:45:16;;;;;;;;;;;;;;;;;;6365927;27;20021;-76
2023/09/14 12:48:17;;;;;;;;;;;;;;;;;;6377584;27;19950;-77
2023/09/14 12:51:18;;;;;;;;;;;;;;;;;;6378796;27;20001;-75
2023/09/14 12:54:19;;;;;;;;;;;;;;;;;;6364297;27;20322;-75
2023/09/14 12:57:21;;;;;;;;;;;;;;;;;;6381066;27;20399;-76
2023/09/14 13:00:21;;;;;;;;;;;;;;;;;;6367732;27;19916;-76
2023/09/14 13:03:22;;;;;;;;;;;;;;;;;;6364298;27;19971;-76
2023/09/14 13:06:22;;;;;;;;;;;;;;;;;;6343417;28;20030;-75
2023/09/14 13:09:22;;;;;;;;;;;;;;;;;;6331418;28;19916;-74
2023/09/14 13:12:22;;;;;;;;;;;;;;;;;;6350114;28;19935;-74
2023/09/14 13:15:22;;;;;;;;;;;;;;;;;;6347794;28;19926;-75
2023/09/14 13:18:22;;;;;;;;;;;;;;;;;;6354493;27;19911;-74
2023/09/14 13:21:22;;;;;;;;;;;;;;;;;;6357892;27;20006;-75
2023/09/14 13:24:24;;;;;;;;;;;;;;;;;;6359163;27;20370;-76
2023/09/14 13:27:24;;;;;;;;;;;;;;;;;;6349640;27;19922;-75
2023/09/14 13:30:24;;;;;;;;;;;;;;;;;;6376441;27;19911;-77
2023/09/14 13:33:24;;;;;;;;;;;;;;;;;;6015705;27;9999786;-77
2023/09/14 13:36:24;;;;;;;;;;;;;;;;;;6349847;27;19915;-76
2023/09/14 13:39:25;;;;;;;;;;;;;;;;;;6361275;27;20374;-75
2023/09/14 13:42:25;;;;;;;;;;;;;;;;;;6360944;27;19915;-77
2023/09/14 13:45:25;;;;;;;;;;;;;;;;;;6364320;27;19915;-76
2023/09/14 13:48:26;;;;;;;;;;;;;;;;;;6357012;27;20361;-76
2023/09/14 13:51:27;;;;;;;;;;;;;;;;;;6355982;27;20305;-76
2023/09/14 13:54:27;;;;;;;;;;;;;;;;;;6356967;27;19919;-77
2023/09/14 13:57:27;;;;;;;;;;;;;;;;;;6363018;27;19968;-76
2023/09/14 14:00:27;;;;;;;;;;;;;;;;;;6366228;27;19915;-77
2023/09/14 14:03:27;;;;;;;;;;;;;;;;;;6370688;27;19931;-75
2023/09/14 14:06:27;;;;;;;;;;;;;;;;;;6362363;27;19920;-76
2023/09/14 14:09:27;;;;;;;;;;;;;;;;;;6366424;28;19987;-76
2023/09/14 14:12:28;;;;;;;;;;;;;;;;;;6365724;28;19907;-76
2023/09/14 14:15:28;;;;;;;;;;;;;;;;;;6370314;28;19915;-76
2023/09/14 14:18:29;;;;;;;;;;;;;;;;;;6370880;28;19912;-76
2023/09/14 14:21:29;;;;;;;;;;;;;;;;;;6371441;28;19968;-77
2023/09/14 14:24:31;;;;;;;;;;;;;;;;;;6368283;28;19956;-77
2023/09/14 14:27:32;;;;;;;;;;;;;;;;;;6350021;28;19916;-76
2023/09/14 14:30:32;;;;;;;;;;;;;;;;;;6371112;28;19911;-77
2023/09/14 14:33:32;;;;;;;;;;;;;;;;;;6371004;28;19919;-77
2023/09/14 14:36:32;;;;;;;;;;;;;;;;;;6371082;28;19912;-76
2023/09/14 14:39:33;;;;;;;;;;;;;;;;;;6341543;28;19915;-78
2023/09/14 14:42:34;;;;;;;;;;;;;;;;;;6368252;28;20321;-75
2023/09/14 14:45:35;;;;;;;;;;;;;;;;;;6370016;28;19918;-76
2023/09/14 14:48:35;;;;;;;;;;;;;;;;;;6365238;28;19911;-76
2023/09/14 14:51:35;;;;;;;;;;;;;;;;;;6354477;28;19911;-77
2023/09/14 14:54:36;;;;;;;;;;;;;;;;;;6356998;28;19927;-76
2023/09/14 14:57:36;;;;;;;;;;;;;;;;;;6355345;28;19961;-75
2023/09/14 15:00:36;;;;;;;;;;;;;;;;;;6365598;28;19907;-76
2023/09/14 15:03:37;;;;;;;;;;;;;;;;;;6373268;28;19976;-77
2023/09/14 15:06:37;;;;;;;;;;;;;;;;;;6370994;28;19953;-76
2023/09/14 15:09:37;;;;;;;;;;;;;;;;;;6362570;28;19927;-78
2023/09/14 15:12:37;;;;;;;;;;;;;;;;;;6367705;27;19933;-74
2023/09/14 15:15:37;;;;;;;;;;;;;;;;;;6361402;27;19998;-75
2023/09/14 15:18:37;;;;;;;;;;;;;;;;;;6370573;27;20314;-75
2023/09/14 15:21:37;;;;;;;;;;;;;;;;;;6360373;27;19912;-77
2023/09/14 15:24:38;;;;;;;;;;;;;;;;;;6363698;27;19911;-78
2023/09/14 15:27:39;;;;;;;;;;;;;;;;;;6346351;27;19916;-77
2023/09/14 15:30:39;;;;;;;;;;;;;;;;;;6347011;27;20023;-76
2023/09/14 15:33:39;;;;;;;;;;;;;;;;;;6365520;27;19919;-76
2023/09/14 15:36:40;;;;;;;;;;;;;;;;;;6346372;27;20385;-74
2023/09/14 15:39:40;;;;;;;;;;;;;;;;;;6363278;27;19912;-76
2023/09/14 15:42:40;;;;;;;;;;;;;;;;;;6366109;27;19911;-77
2023/09/14 15:45:40;;;;;;;;;;;;;;;;;;6341065;27;19965;-76
2023/09/14 15:48:40;;;;;;;;;;;;;;;;;;6363706;27;20318;-76
2023/09/14 15:51:40;;;;;;;;;;;;;;;;;;6365692;27;19923;-76
2023/09/14 15:54:40;;;;;;;;;;;;;;;;;;6371125;27;19935;-78
2023/09/14 15:57:42;;;;;;;;;;;;;;;;;;6373867;27;20204;-76
2023/09/14 16:00:44;;;;;;;;;;;;;;;;;;6374015;27;19922;-77
2023/09/14 16:03:44;;;;;;;;;;;;;;;;;;6353833;27;19927;-79
2023/09/14 16:06:48;;;;;;;;;;;;;;;;;;6369509;27;20325;-77
2023/09/14 16:09:49;;;;;;;;;;;;;;;;;;6374508;27;20381;-77
2023/09/14 16:12:49;;;;;;;;;;;;;;;;;;6373690;27;20013;-76
2023/09/14 16:15:50;;;;;;;;;;;;;;;;;;6357272;27;19919;-77
2023/09/14 16:18:50;;;;;;;;;;;;;;;;;;6368113;27;19956;-78
2023/09/14 16:21:51;;;;;;;;;;;;;;;;;;6352415;27;19919;-76
2023/09/14 16:24:51;;;;;;;;;;;;;;;;;;6362371;27;19914;-76
2023/09/14 16:27:51;;;;;;;;;;;;;;;;;;6372907;27;19943;-76
2023/09/14 16:30:54;;;;;;;;;;;;;;;;;;6355257;27;19919;-76
2023/09/14 16:33:54;;;;;;;;;;;;;;;;;;6351114;27;19912;-78
2023/09/14 16:36:56;;;;;;;;;;;;;;;;;;6368294;27;19912;-78
2023/09/14 16:39:57;;;;;;;;;;;;;;;;;;6372418;27;19911;-78
2023/09/14 16:42:58;;;;;;;;;;;;;;;;;;6369242;27;19976;-78
2023/09/14 16:45:58;;;;;;;;;;;;;;;;;;6365223;27;19918;-78
2023/09/14 16:48:58;;;;;;;;;;;;;;;;;;6373192;27;19907;-78
2023/09/14 16:51:58;;;;;;;;;;;;;;;;;;6365584;27;19994;-78
2023/09/14 16:54:58;;;;;;;;;;;;;;;;;;6367457;27;19920;-77
2023/09/14 16:57:59;;;;;;;;;;;;;;;;;;6373257;27;20314;-77
2023/09/14 17:01:00;;;;;;;;;;;;;;;;;;6371642;27;19911;-78
2023/09/14 17:04:02;;;;;;;;;;;;;;;;;;6358371;27;19919;-79
2023/09/14 17:07:02;;;;;;;;;;;;;;;;;;6356943;27;19916;-78
2023/09/14 17:10:04;;;;;;;;;;;;;;;;;;6366754;27;19916;-78
2023/09/14 17:13:04;;;;;;;;;;;;;;;;;;6353121;27;19916;-79
2023/09/14 17:16:04;;;;;;;;;;;;;;;;;;6339997;27;19942;-79
2023/09/14 17:19:05;;;;;;;;;;;;;;;;;;6330017;28;19954;-78
2023/09/14 17:22:09;;;;;;;;;;;;;;;;;;6363925;27;19908;-78
2023/09/14 17:25:09;;;;;;;;;;;;;;;;;;6368692;27;20002;-78
2023/09/14 17:28:11;;;;;;;;;;;;;;;;;;6358914;27;20342;-78
2023/09/14 17:31:11;;;;;;;;;;;;;;;;;;6353531;27;19950;-77
2023/09/14 17:34:11;;;;;;;;;;;;;;;;;;6354720;27;19930;-77
2023/09/14 17:37:11;;;;;;;;;;;;;;;;;;6357781;27;19916;-76
2023/09/14 17:40:12;;;;;;;;;;;;;;;;;;6357638;27;19977;-76
2023/09/14 17:43:12;;;;;;;;;;;;;;;;;;6349072;27;20424;-76
2023/09/14 17:46:12;;;;;;;;;;;;;;;;;;6351862;27;19947;-76
2023/09/14 17:49:12;;;;;;;;;;;;;;;;;;6353652;27;19927;-77
2023/09/14 17:52:13;;;;;;;;;;;;;;;;;;6358825;27;19915;-77
2023/09/14 17:55:13;;;;;;;;;;;;;;;;;;6349616;27;19972;-75
2023/09/14 17:58:13;;;;;;;;;;;;;;;;;;6332376;28;19919;-72
2023/09/14 18:01:13;;;;;;;;;;;;;;;;;;6353167;28;19953;-73
2023/09/14 18:04:13;;;;;;;;;;;;;;;;;;6363586;28;19919;-74
2023/09/14 18:07:15;;;;;;;;;;;;;;;;;;6353996;27;19911;-74
2023/09/14 18:10:15;;;;;;;;;;;;;;;;;;6354083;28;19918;-72
2023/09/14 18:13:16;;;;;;;;;;;;;;;;;;6359688;28;19919;-73
2023/09/14 18:16:16;;;;;;;;;;;;;;;;;;6329963;28;19935;-73
2023/09/14 18:19:16;;;;;;;;;;;;;;;;;;6355556;28;20668;-73
2023/09/14 18:22:16;;;;;;;;;;;;;;;;;;6355223;28;19980;-72
2023/09/14 18:25:17;;;;;;;;;;;;;;;;;;6353243;28;19962;-73
2023/09/14 18:28:17;;;;;;;;;;;;;;;;;;6356667;28;19917;-72
2023/09/14 18:31:17;;;;;;;;;;;;;;;;;;6350630;28;19939;-73
2023/09/14 18:34:17;;;;;;;;;;;;;;;;;;6353835;28;20365;-73
2023/09/14 18:37:17;;;;;;;;;;;;;;;;;;6347879;28;19915;-72
2023/09/14 18:40:17;;;;;;;;;;;;;;;;;;6351344;28;19951;-73
2023/09/14 18:43:17;;;;;;;;;;;;;;;;;;6355966;28;19998;-73
2023/09/14 18:46:19;;;;;;;;;;;;;;;;;;6350113;27;20006;-74
2023/09/14 18:49:20;;;;;;;;;;;;;;;;;;6357134;27;19989;-73
2023/09/14 18:52:20;;;;;;;;;;;;;;;;;;6357615;27;19998;-73
2023/09/14 18:55:22;;;;;;;;;;;;;;;;;;6352450;27;19920;-73
2023/09/14 18:58:23;;;;;;;;;;;;;;;;;;6003985;27;10000013;-73
2023/09/14 19:01:23;;;;;;;;;;;;;;;;;;6336537;27;19922;-73
2023/09/14 19:04:23;;;;;;;;;;;;;;;;;;6356383;27;19924;-73
2023/09/14 19:07:23;;;;;;;;;;;;;;;;;;6355417;27;19919;-74
2023/09/14 19:10:23;;;;;;;;;;;;;;;;;;6354475;27;20338;-73
2023/09/14 19:13:24;;;;;;;;;;;;;;;;;;6354129;27;20631;-73
2023/09/14 19:16:24;;;;;;;;;;;;;;;;;;6358526;27;19915;-73
2023/09/14 19:19:25;;;;;;;;;;;;;;;;;;6353309;27;19928;-74
2023/09/14 19:22:25;;;;;;;;;;;;;;;;;;6352547;27;19916;-73
2023/09/14 19:25:26;;;;;;;;;;;;;;;;;;6355144;27;19912;-72
2023/09/14 19:28:27;;;;;;;;;;;;;;;;;;6354043;27;19967;-77
2023/09/14 19:31:27;;;;;;;;;;;;;;;;;;6350543;27;19920;-77
2023/09/14 19:34:28;;;;;;;;;;;;;;;;;;6352445;27;19923;-76
2023/09/14 19:37:29;;;;;;;;;;;;;;;;;;6361929;27;19919;-77
2023/09/14 19:40:29;;;;;;;;;;;;;;;;;;6362149;27;20006;-76
2023/09/14 19:43:29;;;;;;;;;;;;;;;;;;6367410;27;19907;-76
2023/09/14 19:46:30;;;;;;;;;;;;;;;;;;6360438;27;20411;-76
2023/09/14 19:49:30;;;;;;;;;;;;;;;;;;6353367;27;20357;-76
2023/09/14 19:52:31;;;;;;;;;;;;;;;;;;6355235;27;19916;-76
2023/09/14 19:55:31;;;;;;;;;;;;;;;;;;6350847;27;20022;-77
2023/09/14 19:58:33;;;;;;;;;;;;;;;;;;6352870;27;20399;-77
2023/09/14 20:01:33;;;;;;;;;;;;;;;;;;6350626;27;20369;-76
2023/09/14 20:04:34;;;;;;;;;;;;;;;;;;6354481;27;20406;-76
2023/09/14 20:07:35;;;;;;;;;;;;;;;;;;6356641;27;20665;-76
2023/09/14 20:10:35;;;;;;;;;;;;;;;;;;6355111;27;19912;-75
2023/09/14 20:13:35;;;;;;;;;;;;;;;;;;6336335;27;20010;-76
2023/09/14 20:16:35;;;;;;;;;;;;;;;;;;6360562;27;19916;-76
2023/09/14 20:19:35;;;;;;;;;;;;;;;;;;6351631;27;20290;-77
2023/09/14 20:22:35;;;;;;;;;;;;;;;;;;6352079;27;19915;-77
2023/09/14 20:25:36;;;;;;;;;;;;;;;;;;6352750;27;19926;-76
2023/09/14 20:28:37;;;;;;;;;;;;;;;;;;6337467;27;20030;-76